sensor_id;sensor_type;location;lat;lon;timestamp;temperature;humidity
74537;SHT31;63013;51.104;-115.370;2023-02-11T00:03:50;21.78;33.81
74537;SHT31;63013;51.104;-115.370;2023-02-11T00:06:17;21.77;33.84
74537;SHT31;63013;51.104;-115.370;2023-02-11T00:08:44;21.78;33.82
74537;SHT31;63013;51.104;-115.370;2023-02-11T00:11:13;21.77;33.82
74537;SHT31;63013;51.104;-115.370;2023-02-11T00:13:43;21.76;33.85
74537;SHT31;63013;51.104;-115.370;2023-02-11T00:16:15;21.76;33.89
74537;SHT31;63013;51.104;-115.370;2023-02-11T00:18:44;21.76;33.89
74537;SHT31;63013;51.104;-115.370;2023-02-11T00:21:13;21.74;33.88
74537;SHT31;63013;51.104;-115.370;2023-02-11T00:23:43;21.76;33.89
74537;SHT31;63013;51.104;-115.370;2023-02-11T00:26:15;21.75;33.93
74537;SHT31;63013;51.104;-115.370;2023-02-11T00:28:46;21.75;33.90
74537;SHT31;63013;51.104;-115.370;2023-02-11T00:31:15;21.74;33.93
74537;SHT31;63013;51.104;-115.370;2023-02-11T00:33:45;21.75;33.91
74537;SHT31;63013;51.104;-115.370;2023-02-11T00:36:22;21.75;33.90
74537;SHT31;63013;51.104;-115.370;2023-02-11T00:38:53;21.75;33.90
74537;SHT31;63013;51.104;-115.370;2023-02-11T00:41:22;21.74;33.90
74537;SHT31;63013;51.104;-115.370;2023-02-11T00:43:50;21.75;33.93
74537;SHT31;63013;51.104;-115.370;2023-02-11T00:46:18;21.74;33.91
74537;SHT31;63013;51.104;-115.370;2023-02-11T00:48:46;21.74;33.90
74537;SHT31;63013;51.104;-115.370;2023-02-11T00:51:13;21.76;33.92
74537;SHT31;63013;51.104;-115.370;2023-02-11T00:53:40;21.76;33.93
74537;SHT31;63013;51.104;-115.370;2023-02-11T00:56:08;21.77;33.98
74537;SHT31;63013;51.104;-115.370;2023-02-11T00:58:35;21.77;34.05
74537;SHT31;63013;51.104;-115.370;2023-02-11T01:01:03;21.77;34.13
74537;SHT31;63013;51.104;-115.370;2023-02-11T01:03:32;21.77;34.20
74537;SHT31;63013;51.104;-115.370;2023-02-11T01:06:00;21.77;34.26
74537;SHT31;63013;51.104;-115.370;2023-02-11T01:08:28;21.78;34.37
74537;SHT31;63013;51.104;-115.370;2023-02-11T01:11:02;21.78;34.39
74537;SHT31;63013;51.104;-115.370;2023-02-11T01:13:35;21.79;34.47
74537;SHT31;63013;51.104;-115.370;2023-02-11T01:16:04;21.79;34.52
74537;SHT31;63013;51.104;-115.370;2023-02-11T01:18:34;21.79;34.58
74537;SHT31;63013;51.104;-115.370;2023-02-11T01:21:02;21.79;34.67
74537;SHT31;63013;51.104;-115.370;2023-02-11T01:23:29;21.80;34.80
74537;SHT31;63013;51.104;-115.370;2023-02-11T01:25:56;21.81;34.93
74537;SHT31;63013;51.104;-115.370;2023-02-11T01:28:24;21.81;34.94
74537;SHT31;63013;51.104;-115.370;2023-02-11T01:30:54;21.83;34.90
74537;SHT31;63013;51.104;-115.370;2023-02-11T01:33:21;21.83;34.90
74537;SHT31;63013;51.104;-115.370;2023-02-11T01:36:06;21.84;34.94
74537;SHT31;63013;51.104;-115.370;2023-02-11T01:38:47;21.84;35.11
74537;SHT31;63013;51.104;-115.370;2023-02-11T01:41:42;21.86;35.22
74537;SHT31;63013;51.104;-115.370;2023-02-11T01:44:28;21.87;35.15
74537;SHT31;63013;51.104;-115.370;2023-02-11T01:47:10;21.88;35.08
74537;SHT31;63013;51.104;-115.370;2023-02-11T01:49:44;21.88;35.03
74537;SHT31;63013;51.104;-115.370;2023-02-11T01:52:35;21.88;34.99
74537;SHT31;63013;51.104;-115.370;2023-02-11T01:55:12;21.89;34.93
74537;SHT31;63013;51.104;-115.370;2023-02-11T01:57:59;21.89;34.90
74537;SHT31;63013;51.104;-115.370;2023-02-11T02:00:38;21.89;34.87
74537;SHT31;63013;51.104;-115.370;2023-02-11T02:03:30;21.90;34.81
74537;SHT31;63013;51.104;-115.370;2023-02-11T02:09:10;21.89;34.73
74537;SHT31;63013;51.104;-115.370;2023-02-11T02:11:48;21.88;34.71
74537;SHT31;63013;51.104;-115.370;2023-02-11T02:14:16;21.87;34.69
74537;SHT31;63013;51.104;-115.370;2023-02-11T02:16:43;21.86;34.67
74537;SHT31;63013;51.104;-115.370;2023-02-11T02:28:37;21.79;34.59
74537;SHT31;63013;51.104;-115.370;2023-02-11T02:34:43;21.76;34.53
74537;SHT31;63013;51.104;-115.370;2023-02-11T02:37:20;21.74;34.50
74537;SHT31;63013;51.104;-115.370;2023-02-11T02:39:58;21.73;34.50
74537;SHT31;63013;51.104;-115.370;2023-02-11T02:42:32;21.71;34.50
74537;SHT31;63013;51.104;-115.370;2023-02-11T02:45:01;21.69;34.51
74537;SHT31;63013;51.104;-115.370;2023-02-11T02:47:29;21.68;34.49
74537;SHT31;63013;51.104;-115.370;2023-02-11T02:49:56;21.67;34.47
74537;SHT31;63013;51.104;-115.370;2023-02-11T02:55:31;21.65;34.40
74537;SHT31;63013;51.104;-115.370;2023-02-11T03:01:33;21.61;34.40
74537;SHT31;63013;51.104;-115.370;2023-02-11T03:04:20;21.59;34.41
74537;SHT31;63013;51.104;-115.370;2023-02-11T03:06:54;21.57;34.40
74537;SHT31;63013;51.104;-115.370;2023-02-11T03:10:01;21.55;34.40
74537;SHT31;63013;51.104;-115.370;2023-02-11T03:12:32;21.53;34.39
74537;SHT31;63013;51.104;-115.370;2023-02-11T03:15:02;21.51;34.40
74537;SHT31;63013;51.104;-115.370;2023-02-11T03:17:32;21.50;34.39
74537;SHT31;63013;51.104;-115.370;2023-02-11T03:20:04;21.48;34.40
74537;SHT31;63013;51.104;-115.370;2023-02-11T03:22:36;21.46;34.40
74537;SHT31;63013;51.104;-115.370;2023-02-11T03:25:11;21.44;34.40
74537;SHT31;63013;51.104;-115.370;2023-02-11T03:33:56;21.38;34.40
74537;SHT31;63013;51.104;-115.370;2023-02-11T03:36:53;21.35;34.42
74537;SHT31;63013;51.104;-115.370;2023-02-11T03:39:44;21.33;34.41
74537;SHT31;63013;51.104;-115.370;2023-02-11T03:42:50;21.31;34.40
74537;SHT31;63013;51.104;-115.370;2023-02-11T03:45:24;21.30;34.40
74537;SHT31;63013;51.104;-115.370;2023-02-11T03:48:03;21.29;34.39
74537;SHT31;63013;51.104;-115.370;2023-02-11T03:50:44;21.27;34.39
74537;SHT31;63013;51.104;-115.370;2023-02-11T03:53:14;21.26;34.39
74537;SHT31;63013;51.104;-115.370;2023-02-11T03:55:44;21.24;34.36
74537;SHT31;63013;51.104;-115.370;2023-02-11T03:58:14;21.23;34.32
74537;SHT31;63013;51.104;-115.370;2023-02-11T04:00:42;21.22;34.31
74537;SHT31;63013;51.104;-115.370;2023-02-11T04:03:10;21.20;34.31
74537;SHT31;63013;51.104;-115.370;2023-02-11T04:05:38;21.19;34.31
74537;SHT31;63013;51.104;-115.370;2023-02-11T04:08:06;21.19;34.30
74537;SHT31;63013;51.104;-115.370;2023-02-11T04:10:33;21.18;34.30
74537;SHT31;63013;51.104;-115.370;2023-02-11T04:13:00;21.19;34.30
74537;SHT31;63013;51.104;-115.370;2023-02-11T04:15:27;21.18;34.27
74537;SHT31;63013;51.104;-115.370;2023-02-11T04:17:54;21.17;34.22
74537;SHT31;63013;51.104;-115.370;2023-02-11T04:20:22;21.18;34.21
74537;SHT31;63013;51.104;-115.370;2023-02-11T04:22:49;21.17;34.16
74537;SHT31;63013;51.104;-115.370;2023-02-11T04:25:16;21.16;34.16
74537;SHT31;63013;51.104;-115.370;2023-02-11T04:27:43;21.16;34.11
74537;SHT31;63013;51.104;-115.370;2023-02-11T04:30:11;21.15;34.09
74537;SHT31;63013;51.104;-115.370;2023-02-11T04:32:39;21.14;34.07
74537;SHT31;63013;51.104;-115.370;2023-02-11T04:35:06;21.13;34.03
74537;SHT31;63013;51.104;-115.370;2023-02-11T04:37:33;21.13;34.03
74537;SHT31;63013;51.104;-115.370;2023-02-11T04:40:00;21.12;34.00
74537;SHT31;63013;51.104;-115.370;2023-02-11T04:42:27;21.11;33.99
74537;SHT31;63013;51.104;-115.370;2023-02-11T04:44:54;21.09;34.00
74537;SHT31;63013;51.104;-115.370;2023-02-11T04:47:21;21.10;33.97
74537;SHT31;63013;51.104;-115.370;2023-02-11T04:49:48;21.08;33.94
74537;SHT31;63013;51.104;-115.370;2023-02-11T04:52:15;21.07;33.91
74537;SHT31;63013;51.104;-115.370;2023-02-11T04:54:43;21.06;33.91
74537;SHT31;63013;51.104;-115.370;2023-02-11T04:57:10;21.03;33.90
74537;SHT31;63013;51.104;-115.370;2023-02-11T04:59:37;21.04;33.90
74537;SHT31;63013;51.104;-115.370;2023-02-11T05:02:05;21.02;33.90
74537;SHT31;63013;51.104;-115.370;2023-02-11T05:04:32;21.00;33.88
74537;SHT31;63013;51.104;-115.370;2023-02-11T05:06:59;20.98;33.88
74537;SHT31;63013;51.104;-115.370;2023-02-11T05:09:26;20.97;33.86
74537;SHT31;63013;51.104;-115.370;2023-02-11T05:11:54;20.95;33.87
74537;SHT31;63013;51.104;-115.370;2023-02-11T05:14:21;20.93;33.84
74537;SHT31;63013;51.104;-115.370;2023-02-11T05:16:48;20.92;33.84
74537;SHT31;63013;51.104;-115.370;2023-02-11T05:19:15;20.90;33.84
74537;SHT31;63013;51.104;-115.370;2023-02-11T05:21:42;20.87;33.87
74537;SHT31;63013;51.104;-115.370;2023-02-11T05:24:10;20.85;33.83
74537;SHT31;63013;51.104;-115.370;2023-02-11T05:26:36;20.84;33.83
74537;SHT31;63013;51.104;-115.370;2023-02-11T05:29:04;20.82;33.83
74537;SHT31;63013;51.104;-115.370;2023-02-11T05:31:31;20.80;33.83
74537;SHT31;63013;51.104;-115.370;2023-02-11T05:33:59;20.78;33.82
74537;SHT31;63013;51.104;-115.370;2023-02-11T05:36:28;20.78;33.81
74537;SHT31;63013;51.104;-115.370;2023-02-11T05:38:56;20.75;33.81
74537;SHT31;63013;51.104;-115.370;2023-02-11T05:41:23;20.74;33.80
74537;SHT31;63013;51.104;-115.370;2023-02-11T05:43:50;20.73;33.81
74537;SHT31;63013;51.104;-115.370;2023-02-11T05:46:17;20.73;33.80
74537;SHT31;63013;51.104;-115.370;2023-02-11T05:48:44;20.72;33.80
74537;SHT31;63013;51.104;-115.370;2023-02-11T05:51:11;20.70;33.80
74537;SHT31;63013;51.104;-115.370;2023-02-11T05:53:38;20.70;33.79
74537;SHT31;63013;51.104;-115.370;2023-02-11T05:56:04;20.70;33.72
74537;SHT31;63013;51.104;-115.370;2023-02-11T05:58:32;20.69;33.71
74537;SHT31;63013;51.104;-115.370;2023-02-11T06:00:58;20.69;33.70
74537;SHT31;63013;51.104;-115.370;2023-02-11T06:03:25;20.70;33.69
74537;SHT31;63013;51.104;-115.370;2023-02-11T06:05:52;20.69;33.65
74537;SHT31;63013;51.104;-115.370;2023-02-11T06:08:19;20.69;33.62
74537;SHT31;63013;51.104;-115.370;2023-02-11T06:10:45;20.68;33.60
74537;SHT31;63013;51.104;-115.370;2023-02-11T06:13:12;20.68;33.60
74537;SHT31;63013;51.104;-115.370;2023-02-11T06:15:39;20.67;33.59
74537;SHT31;63013;51.104;-115.370;2023-02-11T06:18:06;20.67;33.54
74537;SHT31;63013;51.104;-115.370;2023-02-11T06:20:33;20.66;33.54
74537;SHT31;63013;51.104;-115.370;2023-02-11T06:23:01;20.65;33.51
74537;SHT31;63013;51.104;-115.370;2023-02-11T06:25:28;20.64;33.50
74537;SHT31;63013;51.104;-115.370;2023-02-11T06:27:55;20.65;33.50
74537;SHT31;63013;51.104;-115.370;2023-02-11T06:30:22;20.63;33.45
74537;SHT31;63013;51.104;-115.370;2023-02-11T06:32:48;20.63;33.45
74537;SHT31;63013;51.104;-115.370;2023-02-11T06:35:15;20.62;33.42
74537;SHT31;63013;51.104;-115.370;2023-02-11T06:37:42;20.60;33.42
74537;SHT31;63013;51.104;-115.370;2023-02-11T06:42:58;20.60;33.40
74537;SHT31;63013;51.104;-115.370;2023-02-11T06:45:25;20.59;33.40
74537;SHT31;63013;51.104;-115.370;2023-02-11T06:47:52;20.57;33.40
74537;SHT31;63013;51.104;-115.370;2023-02-11T06:50:19;20.55;33.36
74537;SHT31;63013;51.104;-115.370;2023-02-11T06:52:46;20.53;33.40
74537;SHT31;63013;51.104;-115.370;2023-02-11T06:55:14;20.50;33.40
74537;SHT31;63013;51.104;-115.370;2023-02-11T06:57:41;20.48;33.40
74537;SHT31;63013;51.104;-115.370;2023-02-11T07:00:08;20.46;33.40
74537;SHT31;63013;51.104;-115.370;2023-02-11T07:02:36;20.44;33.40
74537;SHT31;63013;51.104;-115.370;2023-02-11T07:05:04;20.42;33.40
74537;SHT31;63013;51.104;-115.370;2023-02-11T07:07:32;20.41;33.41
74537;SHT31;63013;51.104;-115.370;2023-02-11T07:10:00;20.39;33.42
74537;SHT31;63013;51.104;-115.370;2023-02-11T07:12:28;20.38;33.43
74537;SHT31;63013;51.104;-115.370;2023-02-11T07:14:56;20.37;33.43
74537;SHT31;63013;51.104;-115.370;2023-02-11T07:17:23;20.34;33.43
74537;SHT31;63013;51.104;-115.370;2023-02-11T07:19:51;20.33;33.42
74537;SHT31;63013;51.104;-115.370;2023-02-11T07:22:17;20.31;33.42
74537;SHT31;63013;51.104;-115.370;2023-02-11T07:24:44;20.30;33.42
74537;SHT31;63013;51.104;-115.370;2023-02-11T07:27:11;20.28;33.43
74537;SHT31;63013;51.104;-115.370;2023-02-11T07:29:38;20.27;33.41
74537;SHT31;63013;51.104;-115.370;2023-02-11T07:32:07;20.26;33.41
74537;SHT31;63013;51.104;-115.370;2023-02-11T07:34:34;20.25;33.40
74537;SHT31;63013;51.104;-115.370;2023-02-11T07:37:02;20.23;33.40
74537;SHT31;63013;51.104;-115.370;2023-02-11T07:39:29;20.21;33.40
74537;SHT31;63013;51.104;-115.370;2023-02-11T07:41:57;20.18;33.40
74537;SHT31;63013;51.104;-115.370;2023-02-11T07:44:24;20.16;33.40
74537;SHT31;63013;51.104;-115.370;2023-02-11T07:46:51;20.14;33.41
74537;SHT31;63013;51.104;-115.370;2023-02-11T07:49:18;20.12;33.40
74537;SHT31;63013;51.104;-115.370;2023-02-11T07:51:45;20.09;33.45
74537;SHT31;63013;51.104;-115.370;2023-02-11T07:54:14;20.07;33.50
74537;SHT31;63013;51.104;-115.370;2023-02-11T07:56:42;20.05;33.49
74537;SHT31;63013;51.104;-115.370;2023-02-11T07:59:09;20.02;33.50
74537;SHT31;63013;51.104;-115.370;2023-02-11T08:01:36;20.00;33.49
74537;SHT31;63013;51.104;-115.370;2023-02-11T08:04:04;19.97;33.50
74537;SHT31;63013;51.104;-115.370;2023-02-11T08:06:31;19.96;33.50
74537;SHT31;63013;51.104;-115.370;2023-02-11T08:09:04;19.95;33.52
74537;SHT31;63013;51.104;-115.370;2023-02-11T08:11:34;19.93;33.51
74537;SHT31;63013;51.104;-115.370;2023-02-11T08:14:01;19.92;33.51
74537;SHT31;63013;51.104;-115.370;2023-02-11T08:16:30;19.89;33.53
74537;SHT31;63013;51.104;-115.370;2023-02-11T08:19:01;19.87;33.54
74537;SHT31;63013;51.104;-115.370;2023-02-11T08:21:40;19.85;33.55
74537;SHT31;63013;51.104;-115.370;2023-02-11T08:24:09;19.83;33.58
74537;SHT31;63013;51.104;-115.370;2023-02-11T08:26:36;19.81;33.56
74537;SHT31;63013;51.104;-115.370;2023-02-11T08:29:08;19.81;33.58
74537;SHT31;63013;51.104;-115.370;2023-02-11T08:31:40;19.79;33.59
74537;SHT31;63013;51.104;-115.370;2023-02-11T08:34:11;19.78;33.57
74537;SHT31;63013;51.104;-115.370;2023-02-11T08:36:39;19.77;33.57
74537;SHT31;63013;51.104;-115.370;2023-02-11T08:39:13;19.76;33.54
74537;SHT31;63013;51.104;-115.370;2023-02-11T08:41:44;19.76;33.53
74537;SHT31;63013;51.104;-115.370;2023-02-11T08:44:19;19.74;33.51
74537;SHT31;63013;51.104;-115.370;2023-02-11T08:46:47;19.74;33.49
74537;SHT31;63013;51.104;-115.370;2023-02-11T08:49:15;19.72;33.48
74537;SHT31;63013;51.104;-115.370;2023-02-11T08:51:43;19.70;33.52
74537;SHT31;63013;51.104;-115.370;2023-02-11T08:54:11;19.68;33.51
74537;SHT31;63013;51.104;-115.370;2023-02-11T08:56:40;19.67;33.51
74537;SHT31;63013;51.104;-115.370;2023-02-11T08:59:07;19.64;33.50
74537;SHT31;63013;51.104;-115.370;2023-02-11T09:01:39;19.63;33.53
74537;SHT31;63013;51.104;-115.370;2023-02-11T09:04:08;19.60;33.57
74537;SHT31;63013;51.104;-115.370;2023-02-11T09:06:36;19.59;33.56
74537;SHT31;63013;51.104;-115.370;2023-02-11T09:09:03;19.57;33.59
74537;SHT31;63013;51.104;-115.370;2023-02-11T09:11:32;19.55;33.58
74537;SHT31;63013;51.104;-115.370;2023-02-11T09:14:01;19.53;33.61
74537;SHT31;63013;51.104;-115.370;2023-02-11T09:16:30;19.51;33.60
74537;SHT31;63013;51.104;-115.370;2023-02-11T09:19:01;19.50;33.65
74537;SHT31;63013;51.104;-115.370;2023-02-11T09:21:30;19.48;33.60
74537;SHT31;63013;51.104;-115.370;2023-02-11T09:23:57;19.47;33.58
74537;SHT31;63013;51.104;-115.370;2023-02-11T09:26:26;19.45;33.63
74537;SHT31;63013;51.104;-115.370;2023-02-11T09:28:56;19.43;33.64
74537;SHT31;63013;51.104;-115.370;2023-02-11T09:31:25;19.41;33.68
74537;SHT31;63013;51.104;-115.370;2023-02-11T09:33:56;19.39;33.68
74537;SHT31;63013;51.104;-115.370;2023-02-11T09:36:27;19.37;33.68
74537;SHT31;63013;51.104;-115.370;2023-02-11T09:38:59;19.35;33.65
74537;SHT31;63013;51.104;-115.370;2023-02-11T09:41:32;19.34;33.63
74537;SHT31;63013;51.104;-115.370;2023-02-11T09:44:05;19.32;33.62
74537;SHT31;63013;51.104;-115.370;2023-02-11T09:46:45;19.30;33.66
74537;SHT31;63013;51.104;-115.370;2023-02-11T09:57:54;19.23;33.69
74537;SHT31;63013;51.104;-115.370;2023-02-11T10:00:26;19.22;33.67
74537;SHT31;63013;51.104;-115.370;2023-02-11T10:03:10;19.20;33.68
74537;SHT31;63013;51.104;-115.370;2023-02-11T10:05:47;19.19;33.77
74537;SHT31;63013;51.104;-115.370;2023-02-11T10:15:01;19.14;33.69
74537;SHT31;63013;51.104;-115.370;2023-02-11T10:18:09;19.13;33.72
74537;SHT31;63013;51.104;-115.370;2023-02-11T10:23:50;19.09;33.75
74537;SHT31;63013;51.104;-115.370;2023-02-11T10:26:25;19.09;33.72
74537;SHT31;63013;51.104;-115.370;2023-02-11T10:28:57;19.07;33.73
74537;SHT31;63013;51.104;-115.370;2023-02-11T10:31:39;19.07;33.73
74537;SHT31;63013;51.104;-115.370;2023-02-11T10:34:10;19.05;33.77
74537;SHT31;63013;51.104;-115.370;2023-02-11T10:36:40;19.04;33.77
74537;SHT31;63013;51.104;-115.370;2023-02-11T10:39:20;19.02;33.79
74537;SHT31;63013;51.104;-115.370;2023-02-11T10:41:56;19.01;33.78
74537;SHT31;63013;51.104;-115.370;2023-02-11T10:44:36;18.99;33.77
74537;SHT31;63013;51.104;-115.370;2023-02-11T10:47:22;18.98;33.81
74537;SHT31;63013;51.104;-115.370;2023-02-11T10:49:57;18.97;33.79
74537;SHT31;63013;51.104;-115.370;2023-02-11T10:52:28;18.97;33.84
74537;SHT31;63013;51.104;-115.370;2023-02-11T10:55:00;18.94;33.87
74537;SHT31;63013;51.104;-115.370;2023-02-11T10:57:51;18.92;33.86
74537;SHT31;63013;51.104;-115.370;2023-02-11T11:00:34;18.90;33.85
74537;SHT31;63013;51.104;-115.370;2023-02-11T11:03:06;18.88;33.88
74537;SHT31;63013;51.104;-115.370;2023-02-11T11:11:20;18.83;33.88
74537;SHT31;63013;51.104;-115.370;2023-02-11T11:16:26;18.80;33.83
74537;SHT31;63013;51.104;-115.370;2023-02-11T11:24:26;18.76;33.81
74537;SHT31;63013;51.104;-115.370;2023-02-11T11:27:16;18.74;33.83
74537;SHT31;63013;51.104;-115.370;2023-02-11T11:29:48;18.73;33.85
74537;SHT31;63013;51.104;-115.370;2023-02-11T11:32:24;18.73;33.84
74537;SHT31;63013;51.104;-115.370;2023-02-11T11:35:01;18.70;33.85
74537;SHT31;63013;51.104;-115.370;2023-02-11T11:37:45;18.69;33.84
74537;SHT31;63013;51.104;-115.370;2023-02-11T11:40:28;18.68;33.86
74537;SHT31;63013;51.104;-115.370;2023-02-11T11:43:08;18.66;33.90
74537;SHT31;63013;51.104;-115.370;2023-02-11T11:45:52;18.65;33.91
74537;SHT31;63013;51.104;-115.370;2023-02-11T11:51:12;18.61;33.89
74537;SHT31;63013;51.104;-115.370;2023-02-11T11:58:47;18.57;33.90
74537;SHT31;63013;51.104;-115.370;2023-02-11T12:01:27;18.56;33.93
74537;SHT31;63013;51.104;-115.370;2023-02-11T12:13:09;18.49;33.95
74537;SHT31;63013;51.104;-115.370;2023-02-11T12:19:55;18.45;33.97
74537;SHT31;63013;51.104;-115.370;2023-02-11T12:34:01;18.35;34.01
74537;SHT31;63013;51.104;-115.370;2023-02-11T12:42:58;18.29;33.99
74537;SHT31;63013;51.104;-115.370;2023-02-11T12:49:08;18.26;34.01
74537;SHT31;63013;51.104;-115.370;2023-02-11T12:51:59;18.23;34.01
74537;SHT31;63013;51.104;-115.370;2023-02-11T12:54:41;18.23;34.02
74537;SHT31;63013;51.104;-115.370;2023-02-11T12:57:24;18.22;33.97
74537;SHT31;63013;51.104;-115.370;2023-02-11T13:05:56;18.17;34.06
74537;SHT31;63013;51.104;-115.370;2023-02-11T13:08:34;18.16;34.02
74537;SHT31;63013;51.104;-115.370;2023-02-11T13:11:27;18.16;34.02
74537;SHT31;63013;51.104;-115.370;2023-02-11T13:16:47;18.15;33.97
74537;SHT31;63013;51.104;-115.370;2023-02-11T13:19:25;18.14;34.00
74537;SHT31;63013;51.104;-115.370;2023-02-11T13:25:14;18.12;33.96
74537;SHT31;63013;51.104;-115.370;2023-02-11T13:27:59;18.11;33.90
74537;SHT31;63013;51.104;-115.370;2023-02-11T13:30:49;18.09;33.92
74537;SHT31;63013;51.104;-115.370;2023-02-11T13:38:28;18.07;33.93
74537;SHT31;63013;51.104;-115.370;2023-02-11T13:41:05;18.05;33.89
74537;SHT31;63013;51.104;-115.370;2023-02-11T13:43:55;18.03;33.97
74537;SHT31;63013;51.104;-115.370;2023-02-11T13:47:13;18.02;33.90
74537;SHT31;63013;51.104;-115.370;2023-02-11T13:49:48;18.00;33.93
74537;SHT31;63013;51.104;-115.370;2023-02-11T13:54:53;17.98;33.96
74537;SHT31;63013;51.104;-115.370;2023-02-11T13:57:32;17.98;33.98
74537;SHT31;63013;51.104;-115.370;2023-02-11T14:03:16;17.95;33.89
74537;SHT31;63013;51.104;-115.370;2023-02-11T14:06:23;17.93;34.01
74537;SHT31;63013;51.104;-115.370;2023-02-11T14:11:43;17.92;34.02
74537;SHT31;63013;51.104;-115.370;2023-02-11T14:14:23;17.92;33.97
74537;SHT31;63013;51.104;-115.370;2023-02-11T14:19:33;17.88;33.92
74537;SHT31;63013;51.104;-115.370;2023-02-11T14:27:39;17.88;33.79
74537;SHT31;63013;51.104;-115.370;2023-02-11T14:41:52;17.92;33.72
74537;SHT31;63013;51.104;-115.370;2023-02-11T14:44:26;17.96;33.83
74537;SHT31;63013;51.104;-115.370;2023-02-11T14:46:58;18.00;34.01
74537;SHT31;63013;51.104;-115.370;2023-02-11T14:49:27;18.03;34.05
74537;SHT31;63013;51.104;-115.370;2023-02-11T14:52:25;18.06;34.10
74537;SHT31;63013;51.104;-115.370;2023-02-11T14:58:06;18.16;34.16
74537;SHT31;63013;51.104;-115.370;2023-02-11T15:00:33;18.20;34.33
74537;SHT31;63013;51.104;-115.370;2023-02-11T15:03:00;18.25;34.44
74537;SHT31;63013;51.104;-115.370;2023-02-11T15:05:28;18.27;34.51
74537;SHT31;63013;51.104;-115.370;2023-02-11T15:07:58;18.33;34.59
74537;SHT31;63013;51.104;-115.370;2023-02-11T15:10:36;18.36;34.61
74537;SHT31;63013;51.104;-115.370;2023-02-11T15:13:13;18.40;34.62
74537;SHT31;63013;51.104;-115.370;2023-02-11T15:15:47;18.45;34.70
74537;SHT31;63013;51.104;-115.370;2023-02-11T15:18:23;18.50;34.67
74537;SHT31;63013;51.104;-115.370;2023-02-11T15:21:00;18.55;34.69
74537;SHT31;63013;51.104;-115.370;2023-02-11T15:23:28;18.61;34.70
74537;SHT31;63013;51.104;-115.370;2023-02-11T15:25:57;18.65;34.68
74537;SHT31;63013;51.104;-115.370;2023-02-11T15:28:33;18.71;34.71
74537;SHT31;63013;51.104;-115.370;2023-02-11T15:31:02;18.76;34.70
74537;SHT31;63013;51.104;-115.370;2023-02-11T15:47:19;19.17;34.62
74537;SHT31;63013;51.104;-115.370;2023-02-11T15:49:54;19.25;34.61
74537;SHT31;63013;51.104;-115.370;2023-02-11T15:52:22;19.32;34.66
74537;SHT31;63013;51.104;-115.370;2023-02-11T15:54:52;19.41;34.69
74537;SHT31;63013;51.104;-115.370;2023-02-11T15:57:25;19.49;34.63
74537;SHT31;63013;51.104;-115.370;2023-02-11T15:59:53;19.57;34.60
74537;SHT31;63013;51.104;-115.370;2023-02-11T16:02:26;19.64;34.54
74537;SHT31;63013;51.104;-115.370;2023-02-11T16:05:00;19.68;34.50
74537;SHT31;63013;51.104;-115.370;2023-02-11T16:10:15;19.79;34.47
74537;SHT31;63013;51.104;-115.370;2023-02-11T16:18:35;19.92;34.40
74537;SHT31;63013;51.104;-115.370;2023-02-11T16:21:03;19.95;34.40
74537;SHT31;63013;51.104;-115.370;2023-02-11T16:23:39;19.96;34.40
74537;SHT31;63013;51.104;-115.370;2023-02-11T16:26:26;19.96;34.42
74537;SHT31;63013;51.104;-115.370;2023-02-11T16:29:14;19.96;34.43
74537;SHT31;63013;51.104;-115.370;2023-02-11T16:31:49;19.95;34.46
74537;SHT31;63013;51.104;-115.370;2023-02-11T16:34:19;19.95;34.49
74537;SHT31;63013;51.104;-115.370;2023-02-11T16:36:50;19.97;34.51
74537;SHT31;63013;51.104;-115.370;2023-02-11T16:39:18;19.97;34.50
74537;SHT31;63013;51.104;-115.370;2023-02-11T16:41:47;20.00;34.50
74537;SHT31;63013;51.104;-115.370;2023-02-11T16:44:16;20.04;34.50
74537;SHT31;63013;51.104;-115.370;2023-02-11T16:46:43;20.07;34.54
74537;SHT31;63013;51.104;-115.370;2023-02-11T16:51:57;20.09;34.60
74537;SHT31;63013;51.104;-115.370;2023-02-11T16:54:27;20.11;34.59
74537;SHT31;63013;51.104;-115.370;2023-02-11T16:56:55;20.12;34.59
74537;SHT31;63013;51.104;-115.370;2023-02-11T16:59:22;20.13;34.58
74537;SHT31;63013;51.104;-115.370;2023-02-11T17:01:50;20.12;34.60
74537;SHT31;63013;51.104;-115.370;2023-02-11T17:04:20;20.12;34.60
74537;SHT31;63013;51.104;-115.370;2023-02-11T17:06:53;20.12;34.63
74537;SHT31;63013;51.104;-115.370;2023-02-11T17:09:24;20.11;34.65
74537;SHT31;63013;51.104;-115.370;2023-02-11T17:11:52;20.10;34.70
74537;SHT31;63013;51.104;-115.370;2023-02-11T17:14:19;20.11;34.77
74537;SHT31;63013;51.104;-115.370;2023-02-11T17:16:47;20.12;34.81
74537;SHT31;63013;51.104;-115.370;2023-02-11T17:19:15;20.13;34.81
74537;SHT31;63013;51.104;-115.370;2023-02-11T17:21:46;20.15;34.83
74537;SHT31;63013;51.104;-115.370;2023-02-11T17:24:15;20.18;34.84
74537;SHT31;63013;51.104;-115.370;2023-02-11T17:26:43;20.19;34.91
74537;SHT31;63013;51.104;-115.370;2023-02-11T17:29:13;20.20;35.00
74537;SHT31;63013;51.104;-115.370;2023-02-11T17:31:44;20.21;34.99
74537;SHT31;63013;51.104;-115.370;2023-02-11T17:34:11;20.20;34.89
74537;SHT31;63013;51.104;-115.370;2023-02-11T17:36:39;20.20;34.91
74537;SHT31;63013;51.104;-115.370;2023-02-11T17:39:06;20.19;34.94
74537;SHT31;63013;51.104;-115.370;2023-02-11T17:41:35;20.19;35.00
74537;SHT31;63013;51.104;-115.370;2023-02-11T17:44:04;20.19;35.00
74537;SHT31;63013;51.104;-115.370;2023-02-11T17:46:33;20.18;35.02
74537;SHT31;63013;51.104;-115.370;2023-02-11T17:49:00;20.18;35.20
74537;SHT31;63013;51.104;-115.370;2023-02-11T17:51:36;20.18;35.30
74537;SHT31;63013;51.104;-115.370;2023-02-11T17:54:10;20.18;35.32
74537;SHT31;63013;51.104;-115.370;2023-02-11T17:56:41;20.19;35.36
74537;SHT31;63013;51.104;-115.370;2023-02-11T17:59:10;20.19;35.40
74537;SHT31;63013;51.104;-115.370;2023-02-11T18:01:39;20.19;35.40
74537;SHT31;63013;51.104;-115.370;2023-02-11T18:04:09;20.19;35.41
74537;SHT31;63013;51.104;-115.370;2023-02-11T18:06:40;20.20;35.45
74537;SHT31;63013;51.104;-115.370;2023-02-11T18:09:07;20.20;35.44
74537;SHT31;63013;51.104;-115.370;2023-02-11T18:11:35;20.22;35.41
74537;SHT31;63013;51.104;-115.370;2023-02-11T18:14:05;20.22;35.43
74537;SHT31;63013;51.104;-115.370;2023-02-11T18:16:34;20.23;35.55
74537;SHT31;63013;51.104;-115.370;2023-02-11T18:19:03;20.25;35.44